createdAt,value
2024-05-09T00:00:39.981Z,10.23
2024-05-09T00:03:09.264Z,10.29
2024-05-09T00:05:37.562Z,10.34
2024-05-09T00:08:04.994Z,10.38
2024-05-09T00:10:36.666Z,10.44
2024-05-09T00:13:06.416Z,10.50
2024-05-09T00:15:34.052Z,10.52
2024-05-09T00:18:01.744Z,10.56
2024-05-09T00:20:36.851Z,10.55
2024-05-09T00:23:07.687Z,10.47
2024-05-09T00:25:35.290Z,10.44
2024-05-09T00:28:02.709Z,10.41
2024-05-09T00:30:34.451Z,10.42
2024-05-09T00:33:05.344Z,10.40
2024-05-09T00:35:33.177Z,10.40
2024-05-09T00:38:00.252Z,10.39
2024-05-09T00:40:37.661Z,10.41
2024-05-09T00:43:07.223Z,10.40
2024-05-09T00:45:35.120Z,10.40
2024-05-09T00:48:07.075Z,10.39
2024-05-09T00:50:38.170Z,10.33
2024-05-09T00:53:11.475Z,10.26
2024-05-09T00:55:39.524Z,10.23
2024-05-09T00:58:09.611Z,10.17
2024-05-09T01:00:39.928Z,10.18
2024-05-09T01:03:12.534Z,10.15
2024-05-09T01:05:41.309Z,10.11
2024-05-09T01:08:09.248Z,10.07
2024-05-09T01:10:37.109Z,10.06
2024-05-09T01:13:07.511Z,10.01
2024-05-09T01:15:35.812Z,9.97
2024-05-09T01:18:09.843Z,9.92
2024-05-09T01:20:41.982Z,9.90
2024-05-09T01:23:12.254Z,9.86
2024-05-09T01:25:39.892Z,9.86
2024-05-09T01:28:07.255Z,9.85
2024-05-09T01:30:36.443Z,9.89
2024-05-09T01:33:09.962Z,9.90
2024-05-09T01:35:41.283Z,9.89
2024-05-09T01:38:10.137Z,9.93
2024-05-09T01:40:39.667Z,9.92
2024-05-09T01:43:09.372Z,9.93
2024-05-09T01:45:37.494Z,9.86
2024-05-09T01:48:04.946Z,9.89
2024-05-09T01:50:38.534Z,9.87
2024-05-09T01:53:09.988Z,9.88
2024-05-09T01:55:37.166Z,9.86
2024-05-09T01:58:04.037Z,9.87
2024-05-09T02:00:38.734Z,9.78
2024-05-09T02:03:10.770Z,9.73
2024-05-09T02:05:39.461Z,9.67
2024-05-09T02:08:07.444Z,9.61
2024-05-09T02:10:34.278Z,9.57
2024-05-09T02:13:01.294Z,9.50
2024-05-09T02:15:28.119Z,9.41
2024-05-09T02:17:55.390Z,9.39
2024-05-09T02:20:30.651Z,9.31
2024-05-09T02:23:04.647Z,9.23
2024-05-09T02:25:32.811Z,9.17
2024-05-09T02:27:59.820Z,9.07
2024-05-09T02:30:36.502Z,9.07
2024-05-09T02:33:07.798Z,8.94
2024-05-09T02:35:35.172Z,8.88
2024-05-09T02:38:02.184Z,8.76
2024-05-09T02:40:36.220Z,8.72
2024-05-09T02:43:06.652Z,8.65
2024-05-09T02:45:33.697Z,8.58
2024-05-09T02:48:01.473Z,8.50
2024-05-09T02:50:37.127Z,8.43
2024-05-09T02:53:10.938Z,8.40
2024-05-09T02:55:38.591Z,8.31
2024-05-09T02:58:07.264Z,8.23
2024-05-09T03:00:38.988Z,8.16
2024-05-09T03:03:09.846Z,8.10
2024-05-09T03:05:38.665Z,8.04
2024-05-09T03:08:05.983Z,7.98
2024-05-09T03:10:36.317Z,7.97
2024-05-09T03:13:14.661Z,7.96
2024-05-09T03:15:43.770Z,7.95
2024-05-09T03:18:11.375Z,7.87
2024-05-09T03:20:39.370Z,7.85
2024-05-09T03:23:08.640Z,7.91
2024-05-09T03:25:36.476Z,7.84
2024-05-09T03:28:03.762Z,7.79
2024-05-09T03:30:39.360Z,7.76
2024-05-09T03:33:20.085Z,7.82
2024-05-09T03:35:48.865Z,7.74
2024-05-09T03:38:16.427Z,7.78
2024-05-09T03:40:48.052Z,7.81
2024-05-09T03:43:15.884Z,7.78
2024-05-09T03:45:43.752Z,7.81
2024-05-09T03:48:11.076Z,7.72
2024-05-09T03:50:38.309Z,7.83
2024-05-09T03:53:06.622Z,7.87
2024-05-09T03:55:33.425Z,7.87
2024-05-09T03:58:00.277Z,7.90
2024-05-09T04:00:35.415Z,7.95
2024-05-09T04:03:08.588Z,7.93
2024-05-09T04:05:39.821Z,7.97
2024-05-09T04:08:07.637Z,8.01
2024-05-09T04:10:35.304Z,8.03
2024-05-09T04:13:03.581Z,8.06
2024-05-09T04:15:30.949Z,8.12
2024-05-09T04:17:58.028Z,8.15
2024-05-09T04:20:35.830Z,8.13
2024-05-09T04:23:07.877Z,8.12
2024-05-09T04:25:35.348Z,8.24
2024-05-09T04:28:02.213Z,8.29
2024-05-09T04:30:36.773Z,8.34
2024-05-09T04:33:08.264Z,8.39
2024-05-09T04:35:37.262Z,8.51
2024-05-09T04:38:04.922Z,8.61
2024-05-09T04:40:35.141Z,8.74
2024-05-09T04:43:04.447Z,8.84
2024-05-09T04:45:31.437Z,8.93
2024-05-09T04:47:58.721Z,9.05
2024-05-09T04:50:35.389Z,9.12
2024-05-09T04:53:05.813Z,9.24
2024-05-09T04:55:33.282Z,9.36
2024-05-09T04:58:00.265Z,9.46
2024-05-09T05:00:32.680Z,9.63
2024-05-09T05:03:10.555Z,9.82
2024-05-09T05:05:43.623Z,10.02
2024-05-09T05:08:12.583Z,10.20
2024-05-09T05:10:39.828Z,10.38
2024-05-09T05:13:25.187Z,10.54
2024-05-09T05:15:56.786Z,10.60
2024-05-09T05:18:26.103Z,10.56
2024-05-09T05:20:53.622Z,10.80
2024-05-09T05:23:21.588Z,10.98
2024-05-09T05:25:53.422Z,11.10
2024-05-09T05:28:20.915Z,11.37
2024-05-09T05:30:47.772Z,11.53
2024-05-09T05:33:16.164Z,11.64
2024-05-09T05:35:43.469Z,11.68
2024-05-09T05:38:11.511Z,11.89
2024-05-09T05:40:39.490Z,12.01
2024-05-09T05:43:11.290Z,12.18
2024-05-09T05:45:38.769Z,12.31
2024-05-09T05:48:08.008Z,12.37
2024-05-09T05:50:37.528Z,12.49
2024-05-09T05:53:09.598Z,12.62
2024-05-09T05:55:37.954Z,12.75
2024-05-09T05:58:04.975Z,12.88
2024-05-09T06:00:38.373Z,13.15
2024-05-09T06:03:08.291Z,13.24
2024-05-09T06:05:37.158Z,13.27
2024-05-09T06:08:04.574Z,13.47
2024-05-09T06:10:38.015Z,13.52
2024-05-09T06:13:07.480Z,13.72
2024-05-09T06:15:34.411Z,13.83
2024-05-09T06:18:01.715Z,13.96
2024-05-09T06:20:35.654Z,14.14
2024-05-09T06:23:05.887Z,14.34
2024-05-09T06:25:33.152Z,14.37
2024-05-09T06:28:01.404Z,14.51
2024-05-09T06:30:35.257Z,14.61
2024-05-09T06:33:07.812Z,14.55
2024-05-09T06:35:35.447Z,14.60
2024-05-09T06:38:02.590Z,14.76
2024-05-09T06:40:36.383Z,15.00
2024-05-09T06:43:10.342Z,15.08
2024-05-09T06:45:37.294Z,15.04
2024-05-09T06:48:04.641Z,15.29
2024-05-09T06:50:37.328Z,15.23
2024-05-09T06:53:06.084Z,15.48
2024-05-09T06:55:33.065Z,15.64
2024-05-09T06:57:59.862Z,15.60
2024-05-09T07:00:34.791Z,15.85
2024-05-09T07:03:09.660Z,15.98
2024-05-09T07:05:37.050Z,16.17
2024-05-09T07:08:04.917Z,16.39
2024-05-09T07:10:35.182Z,16.42
2024-05-09T07:13:03.142Z,16.57
2024-05-09T07:15:29.912Z,16.71
2024-05-09T07:17:56.916Z,16.51
2024-05-09T07:20:32.192Z,16.60
2024-05-09T07:23:03.233Z,16.82
2024-05-09T07:25:30.584Z,17.00
2024-05-09T07:27:57.635Z,17.12
2024-05-09T07:30:32.636Z,17.28
2024-05-09T07:33:01.942Z,17.26
2024-05-09T07:35:29.673Z,17.58
2024-05-09T07:37:56.809Z,17.70
2024-05-09T07:40:32.760Z,17.77
2024-05-09T07:43:08.119Z,17.73
2024-05-09T07:52:32.690Z,17.91
2024-05-09T07:55:55.733Z,18.48
2024-05-09T07:58:27.645Z,18.33
2024-05-09T08:00:55.122Z,18.06
2024-05-09T08:03:22.918Z,18.32
2024-05-09T08:05:51.680Z,18.60
2024-05-09T08:08:18.615Z,18.74
2024-05-09T08:10:45.604Z,18.26
2024-05-09T08:13:12.534Z,18.65
2024-05-09T08:15:39.584Z,18.92
2024-05-09T08:18:12.141Z,19.23
2024-05-09T08:20:40.157Z,19.26
2024-05-09T08:23:07.543Z,19.34
2024-05-09T08:25:34.356Z,19.42
2024-05-09T08:28:01.347Z,19.36
2024-05-09T08:30:33.803Z,19.21
2024-05-09T08:33:05.854Z,18.94
2024-05-09T08:35:33.559Z,19.41
2024-05-09T08:38:03.228Z,19.44
2024-05-09T08:40:35.702Z,19.67
2024-05-09T08:43:08.229Z,19.69
2024-05-09T08:45:36.398Z,19.73
2024-05-09T08:48:06.386Z,19.92
2024-05-09T08:50:38.813Z,20.04
2024-05-09T08:53:08.153Z,20.05
2024-05-09T08:55:40.212Z,20.21
2024-05-09T08:58:13.604Z,19.83
2024-05-09T09:00:43.360Z,19.89
2024-05-09T09:03:15.591Z,19.83
2024-05-09T09:05:50.518Z,19.97
2024-05-09T09:08:17.709Z,20.02
2024-05-09T09:10:45.587Z,20.21
2024-05-09T09:13:12.600Z,20.01
2024-05-09T09:15:50.132Z,20.37
2024-05-09T09:18:18.289Z,20.58
2024-05-09T09:20:45.451Z,20.37
2024-05-09T09:23:12.308Z,20.27
2024-05-09T09:25:40.047Z,20.45
2024-05-09T09:28:07.826Z,20.44
2024-05-09T09:30:37.836Z,20.12
2024-05-09T09:33:12.312Z,20.43
2024-05-09T09:35:40.250Z,20.79
2024-05-09T09:38:08.092Z,20.79
2024-05-09T09:40:42.821Z,20.77
2024-05-09T09:43:22.089Z,21.10
2024-05-09T09:45:55.466Z,21.22
2024-05-09T09:48:23.072Z,21.08
2024-05-09T09:50:52.979Z,21.18
2024-05-09T09:53:20.208Z,21.04
2024-05-09T09:55:47.332Z,21.25
2024-05-09T09:58:16.776Z,21.35
2024-05-09T10:00:44.860Z,20.37
2024-05-09T10:03:11.943Z,20.63
2024-05-09T10:05:41.181Z,20.86
2024-05-09T10:08:10.921Z,20.77
2024-05-09T10:10:38.372Z,21.15
2024-05-09T10:13:06.354Z,20.97
2024-05-09T10:15:45.441Z,21.35
2024-05-09T10:18:12.741Z,21.11
2024-05-09T10:20:41.439Z,21.13
2024-05-09T10:23:28.144Z,21.07
2024-05-09T10:26:03.506Z,20.93
2024-05-09T10:28:35.937Z,21.29
2024-05-09T10:31:09.957Z,21.38
2024-05-09T10:33:45.673Z,21.37
2024-05-09T10:36:23.275Z,21.73
2024-05-09T10:38:50.795Z,22.01
2024-05-09T10:41:19.024Z,21.97
2024-05-09T10:43:45.806Z,21.38
2024-05-09T10:46:12.922Z,21.57
2024-05-09T10:48:41.836Z,21.17
2024-05-09T10:51:09.402Z,21.40
2024-05-09T10:53:43.240Z,21.52
2024-05-09T10:56:10.838Z,21.45
2024-05-09T10:58:37.600Z,21.49
2024-05-09T11:01:07.074Z,21.56
2024-05-09T11:03:35.774Z,21.80
2024-05-09T11:06:03.121Z,21.76
2024-05-09T11:08:32.947Z,21.62
2024-05-09T11:11:00.380Z,21.84
2024-05-09T11:13:31.938Z,21.75
2024-05-09T11:16:00.048Z,22.05
2024-05-09T11:18:30.865Z,21.83
2024-05-09T11:21:00.818Z,21.90
2024-05-09T11:23:30.489Z,22.17
2024-05-09T11:25:59.355Z,21.93
2024-05-09T11:28:28.994Z,22.04
2024-05-09T11:31:09.076Z,22.17
2024-05-09T11:33:41.487Z,22.24
2024-05-09T11:36:09.641Z,22.43
2024-05-09T11:38:36.650Z,22.46
2024-05-09T11:41:05.066Z,22.53
2024-05-09T11:43:32.356Z,22.22
2024-05-09T11:46:01.138Z,21.68
2024-05-09T11:48:28.423Z,21.67
2024-05-09T11:50:55.649Z,21.99
2024-05-09T11:53:22.677Z,22.38
2024-05-09T11:55:49.755Z,22.43
2024-05-09T11:58:18.347Z,22.71
2024-05-09T12:00:46.114Z,22.42
2024-05-09T12:03:13.243Z,22.33
2024-05-09T12:05:40.341Z,22.42
2024-05-09T12:08:07.669Z,22.42
2024-05-09T12:10:36.236Z,22.53
2024-05-09T12:13:05.895Z,22.69
2024-05-09T12:15:37.148Z,22.09
2024-05-09T12:18:05.343Z,22.05
2024-05-09T12:20:37.436Z,21.40
2024-05-09T12:23:07.536Z,22.26
2024-05-09T12:25:35.919Z,22.52
2024-05-09T12:28:02.996Z,22.54
2024-05-09T12:30:36.573Z,22.35
2024-05-09T12:33:08.868Z,22.64
2024-05-09T12:35:36.257Z,22.49
2024-05-09T12:38:03.084Z,22.26
2024-05-09T12:40:35.883Z,21.77
2024-05-09T12:43:09.717Z,21.39
2024-05-09T12:45:37.849Z,21.79
2024-05-09T12:48:07.561Z,21.94
2024-05-09T12:50:35.183Z,21.88
2024-05-09T12:53:03.391Z,21.84
2024-05-09T12:55:37.375Z,22.10
2024-05-09T12:58:11.812Z,22.38
2024-05-09T13:00:39.100Z,22.15
2024-05-09T13:03:06.391Z,22.34
2024-05-09T13:05:33.570Z,22.68
2024-05-09T13:08:01.045Z,22.56
2024-05-09T13:10:32.190Z,22.64
2024-05-09T13:13:01.485Z,22.87
2024-05-09T13:15:30.861Z,23.11
2024-05-09T13:18:01.639Z,22.55
2024-05-09T13:20:33.563Z,22.74
2024-05-09T13:23:03.659Z,22.24
2024-05-09T13:25:30.666Z,22.46
2024-05-09T13:27:58.190Z,22.57
2024-05-09T13:30:34.342Z,22.63
2024-05-09T13:33:06.967Z,22.63
2024-05-09T13:35:35.528Z,22.77
2024-05-09T13:38:04.351Z,22.85
2024-05-09T13:40:34.684Z,22.73
2024-05-09T13:43:05.602Z,22.68
2024-05-09T13:45:33.330Z,22.73
2024-05-09T13:48:01.045Z,22.72
2024-05-09T13:50:33.936Z,22.82
2024-05-09T13:53:05.753Z,22.58
2024-05-09T13:55:33.708Z,22.68
2024-05-09T13:58:01.505Z,22.71
2024-05-09T14:00:41.740Z,22.67
2024-05-09T14:03:14.330Z,22.66
2024-05-09T14:05:41.747Z,22.64
2024-05-09T14:08:09.901Z,22.22
2024-05-09T14:10:43.983Z,22.58
2024-05-09T14:13:11.633Z,22.37
2024-05-09T14:15:38.533Z,22.39
2024-05-09T14:18:07.969Z,22.55
2024-05-09T14:20:36.120Z,22.71
2024-05-09T14:23:02.883Z,22.94
2024-05-09T14:25:32.209Z,22.72
2024-05-09T14:28:00.106Z,22.74
2024-05-09T14:30:34.800Z,22.46
2024-05-09T14:33:06.228Z,22.51
2024-05-09T14:35:34.014Z,22.60
2024-05-09T14:38:00.987Z,21.96
2024-05-09T14:40:37.270Z,22.28
2024-05-09T14:43:10.439Z,22.28
2024-05-09T14:45:37.522Z,22.15
2024-05-09T14:48:05.091Z,22.40
2024-05-09T14:50:36.428Z,22.54
2024-05-09T14:53:10.308Z,22.56
2024-05-09T14:55:40.029Z,22.42
2024-05-09T14:58:08.662Z,22.39
2024-05-09T15:00:47.908Z,22.35
2024-05-09T15:03:18.915Z,22.32
2024-05-09T15:05:47.336Z,22.09
2024-05-09T15:08:14.303Z,22.28
2024-05-09T15:10:41.200Z,21.97
2024-05-09T15:13:09.839Z,22.01
2024-05-09T15:15:38.325Z,22.06
2024-05-09T15:18:06.301Z,21.85
2024-05-09T15:20:36.260Z,21.59
2024-05-09T15:23:07.447Z,21.98
2024-05-09T15:25:35.853Z,22.13
2024-05-09T15:28:03.955Z,22.05
2024-05-09T15:30:34.722Z,21.78
2024-05-09T15:33:06.433Z,21.76
2024-05-09T15:35:34.647Z,21.99
2024-05-09T15:38:03.365Z,21.83
2024-05-09T15:40:37.738Z,21.43
2024-05-09T15:43:09.143Z,21.88
2024-05-09T15:45:37.410Z,22.15
2024-05-09T15:48:05.728Z,22.22
2024-05-09T15:50:38.684Z,22.40
2024-05-09T15:53:12.238Z,22.31
2024-05-09T15:55:39.978Z,22.34
2024-05-09T15:58:07.567Z,22.03
2024-05-09T16:00:39.202Z,21.95
2024-05-09T16:03:13.906Z,22.15
2024-05-09T16:05:46.990Z,22.03
2024-05-09T16:08:15.196Z,21.93
2024-05-09T16:10:44.379Z,21.94
2024-05-09T16:13:12.610Z,22.07
2024-05-09T16:15:39.905Z,21.93
2024-05-09T16:18:07.178Z,22.00
2024-05-09T16:20:39.567Z,22.34
2024-05-09T16:23:09.179Z,22.63
2024-05-09T16:25:39.669Z,22.54
2024-05-09T16:28:10.941Z,22.28
2024-05-09T16:30:39.718Z,22.19
2024-05-09T16:33:07.517Z,22.14
2024-05-09T16:35:35.391Z,22.00
2024-05-09T16:38:03.436Z,21.97
2024-05-09T16:40:37.722Z,21.83
2024-05-09T16:43:08.611Z,21.46
2024-05-09T16:45:36.122Z,21.29
2024-05-09T16:48:03.990Z,21.17
2024-05-09T16:50:34.260Z,20.97
2024-05-09T16:53:04.134Z,20.72
2024-05-09T16:55:31.874Z,20.50
2024-05-09T16:57:59.340Z,20.62
2024-05-09T17:00:36.244Z,20.50
2024-05-09T17:03:09.924Z,20.28
2024-05-09T17:05:37.911Z,20.23
2024-05-09T17:08:05.476Z,20.23
2024-05-09T17:10:34.570Z,19.99
2024-05-09T17:13:07.305Z,20.02
2024-05-09T17:15:36.462Z,19.98
2024-05-09T17:18:04.619Z,19.92
2024-05-09T17:20:34.831Z,19.89
2024-05-09T17:23:05.961Z,19.88
2024-05-09T17:25:33.482Z,19.87
2024-05-09T17:28:06.637Z,19.91
2024-05-09T17:30:37.349Z,19.82
2024-05-09T17:33:07.611Z,19.97
2024-05-09T17:35:36.159Z,19.90
2024-05-09T17:38:03.291Z,19.91
2024-05-09T17:40:34.004Z,19.78
2024-05-09T17:43:04.901Z,19.64
2024-05-09T17:45:32.507Z,19.63
2024-05-09T17:48:00.085Z,19.60
2024-05-09T17:50:34.974Z,19.42
2024-05-09T17:53:04.673Z,19.28
2024-05-09T17:55:31.807Z,19.12
2024-05-09T17:57:58.842Z,19.03
2024-05-09T18:02:56.048Z,18.77
2024-05-09T18:05:22.978Z,18.70
2024-05-09T18:07:49.891Z,18.59
2024-05-09T18:10:22.624Z,18.45
2024-05-09T18:12:56.533Z,18.33
2024-05-09T18:15:23.425Z,18.20
2024-05-09T18:17:52.202Z,18.09
2024-05-09T18:20:28.730Z,17.93
2024-05-09T18:23:05.454Z,17.86
2024-05-09T18:25:32.389Z,17.76
2024-05-09T18:27:59.308Z,17.66
2024-05-09T18:30:32.308Z,17.49
2024-05-09T18:33:02.299Z,17.37
2024-05-09T18:35:29.271Z,17.23
2024-05-09T18:37:56.107Z,17.09
2024-05-09T18:40:31.260Z,16.92
2024-05-09T18:43:02.393Z,16.76
2024-05-09T18:45:29.360Z,16.62
2024-05-09T18:47:56.666Z,16.49
2024-05-09T18:50:32.043Z,16.36
2024-05-09T18:53:05.240Z,16.23
2024-05-09T18:55:32.019Z,16.11
2024-05-09T18:57:58.998Z,15.94
2024-05-09T19:00:33.986Z,15.82
2024-05-09T19:03:06.222Z,15.65
2024-05-09T19:05:35.569Z,15.54
2024-05-09T19:08:03.054Z,15.46
2024-05-09T19:10:34.296Z,15.37
2024-05-09T19:13:06.676Z,15.27
2024-05-09T19:15:37.573Z,15.15
2024-05-09T19:18:04.843Z,15.06
2024-05-09T19:20:34.654Z,14.96
2024-05-09T19:23:03.407Z,14.84
2024-05-09T19:25:30.555Z,14.80
2024-05-09T19:27:57.588Z,14.71
2024-05-09T19:30:33.026Z,14.64
2024-05-09T19:33:06.138Z,14.56
2024-05-09T19:35:33.235Z,14.51
2024-05-09T19:38:00.203Z,14.43
2024-05-09T19:40:31.732Z,14.33
2024-05-09T19:43:01.789Z,14.27
2024-05-09T19:45:29.299Z,14.15
2024-05-09T19:47:56.597Z,14.09
2024-05-09T19:50:32.229Z,14.01
2024-05-09T19:53:06.924Z,13.96
2024-05-09T19:55:34.346Z,13.88
2024-05-09T19:58:05.244Z,13.84
2024-05-09T20:00:39.903Z,13.77
2024-05-09T20:03:09.873Z,13.66
2024-05-09T20:05:37.722Z,13.64
2024-05-09T20:08:05.503Z,13.62
2024-05-09T20:10:34.639Z,13.58
2024-05-09T20:13:03.692Z,13.55
2024-05-09T20:15:32.081Z,13.50
2024-05-09T20:17:59.155Z,13.48
2024-05-09T20:20:33.831Z,13.42
2024-05-09T20:23:06.305Z,13.42
2024-05-09T20:25:33.234Z,13.39
2024-05-09T20:28:00.236Z,13.34
2024-05-09T20:30:32.080Z,13.27
2024-05-09T20:33:02.942Z,13.26
2024-05-09T20:35:32.819Z,13.22
2024-05-09T20:38:01.565Z,13.16
2024-05-09T20:40:33.468Z,13.13
2024-05-09T20:43:04.006Z,13.09
2024-05-09T20:45:30.991Z,13.05
2024-05-09T20:47:58.045Z,13.05
2024-05-09T20:50:35.562Z,13.06
2024-05-09T20:53:11.543Z,13.03
2024-05-09T20:55:38.874Z,13.02
2024-05-09T20:58:05.908Z,12.96
2024-05-09T21:00:40.181Z,12.95
2024-05-09T21:03:11.381Z,12.89
2024-05-09T21:05:39.023Z,12.87
2024-05-09T21:08:06.640Z,12.84
2024-05-09T21:10:35.024Z,12.76
2024-05-09T21:13:03.348Z,12.71
2024-05-09T21:15:31.223Z,12.68
2024-05-09T21:17:58.401Z,12.60
2024-05-09T21:20:31.042Z,12.55
2024-05-09T21:22:59.552Z,12.49
2024-05-09T21:25:26.341Z,12.42
2024-05-09T21:27:53.445Z,12.38
2024-05-09T21:30:31.798Z,12.35
2024-05-09T21:33:09.305Z,12.31
2024-05-09T21:35:37.298Z,12.27
2024-05-09T21:38:04.787Z,12.22
2024-05-09T21:40:34.970Z,12.16
2024-05-09T21:43:04.581Z,12.13
2024-05-09T21:45:31.926Z,12.13
2024-05-09T21:47:59.128Z,12.09
2024-05-09T21:50:32.049Z,12.06
2024-05-09T21:53:06.559Z,12.05
2024-05-09T21:55:33.598Z,12.03
2024-05-09T21:58:00.722Z,12.01
2024-05-09T22:00:34.795Z,11.98
2024-05-09T22:03:05.117Z,11.95
2024-05-09T22:05:32.241Z,11.93
2024-05-09T22:07:59.421Z,11.91
2024-05-09T22:10:32.375Z,11.91
2024-05-09T22:13:01.788Z,11.92
2024-05-09T22:15:28.766Z,11.90
2024-05-09T22:17:57.315Z,11.88
2024-05-09T22:20:33.545Z,11.84
2024-05-09T22:23:04.463Z,11.79
2024-05-09T22:25:32.279Z,11.74
2024-05-09T22:28:00.705Z,11.69
2024-05-09T22:30:34.937Z,11.69
2024-05-09T22:33:06.158Z,11.67
2024-05-09T22:35:33.345Z,11.67
2024-05-09T22:38:00.189Z,11.68
2024-05-09T22:40:38.423Z,11.64
2024-05-09T22:43:13.960Z,11.64
2024-05-09T22:45:41.369Z,11.64
2024-05-09T22:48:09.096Z,11.61
2024-05-09T22:50:36.230Z,11.58
2024-05-09T22:53:03.079Z,11.56
2024-05-09T22:55:30.124Z,11.51
2024-05-09T22:57:56.997Z,11.50
2024-05-09T23:02:53.570Z,11.47
2024-05-09T23:05:20.599Z,11.44
2024-05-09T23:07:47.455Z,11.46
2024-05-09T23:10:21.215Z,11.45
2024-05-09T23:12:54.834Z,11.38
2024-05-09T23:15:21.895Z,11.39
2024-05-09T23:17:48.794Z,11.35
2024-05-09T23:20:21.696Z,11.34
2024-05-09T23:22:55.951Z,11.29
2024-05-09T23:25:22.783Z,11.29
2024-05-09T23:27:49.706Z,11.27
2024-05-09T23:30:28.309Z,11.26
2024-05-09T23:33:01.367Z,11.25
2024-05-09T23:35:28.368Z,11.24
2024-05-09T23:37:55.334Z,11.22
2024-05-09T23:40:23.505Z,11.21
2024-05-09T23:42:53.530Z,11.21
2024-05-09T23:45:20.371Z,11.21
2024-05-09T23:47:47.587Z,11.20
2024-05-09T23:50:20.386Z,11.18
2024-05-09T23:52:50.547Z,11.15
2024-05-09T23:55:17.462Z,11.11
2024-05-09T23:57:44.575Z,11.18
